sensor_id;sensor_type;location;lat;lon;timestamp;P1;durP1;ratioP1;P2;durP2;ratioP2
61960;SDS011;47923;42.506;24.192;2022-08-01T00:01:01;9.52;;;5.88;;
61960;SDS011;47923;42.506;24.192;2022-08-01T00:03:26;8.00;;;5.85;;
61960;SDS011;47923;42.506;24.192;2022-08-01T00:05:52;9.13;;;6.53;;
61960;SDS011;47923;42.506;24.192;2022-08-01T00:08:17;9.07;;;7.22;;
61960;SDS011;47923;42.506;24.192;2022-08-01T00:10:43;8.40;;;6.75;;
61960;SDS011;47923;42.506;24.192;2022-08-01T00:13:08;10.27;;;7.75;;
61960;SDS011;47923;42.506;24.192;2022-08-01T00:15:34;9.20;;;7.32;;
61960;SDS011;47923;42.506;24.192;2022-08-01T00:18:00;9.20;;;7.40;;
61960;SDS011;47923;42.506;24.192;2022-08-01T00:20:26;9.77;;;7.70;;
61960;SDS011;47923;42.506;24.192;2022-08-01T00:22:51;11.15;;;8.18;;
61960;SDS011;47923;42.506;24.192;2022-08-01T00:25:17;8.90;;;7.70;;
61960;SDS011;47923;42.506;24.192;2022-08-01T00:27:42;10.52;;;9.02;;
61960;SDS011;47923;42.506;24.192;2022-08-01T00:30:08;9.52;;;8.30;;
61960;SDS011;47923;42.506;24.192;2022-08-01T00:32:34;9.57;;;8.43;;
61960;SDS011;47923;42.506;24.192;2022-08-01T00:34:59;9.75;;;8.05;;
61960;SDS011;47923;42.506;24.192;2022-08-01T00:37:25;15.23;;;8.90;;
61960;SDS011;47923;42.506;24.192;2022-08-01T00:39:50;8.60;;;7.70;;
61960;SDS011;47923;42.506;24.192;2022-08-01T00:42:16;10.48;;;8.60;;
61960;SDS011;47923;42.506;24.192;2022-08-01T00:44:41;9.98;;;7.88;;
61960;SDS011;47923;42.506;24.192;2022-08-01T00:47:07;10.73;;;8.43;;
61960;SDS011;47923;42.506;24.192;2022-08-01T00:49:33;10.07;;;8.13;;
61960;SDS011;47923;42.506;24.192;2022-08-01T00:51:59;9.02;;;7.82;;
61960;SDS011;47923;42.506;24.192;2022-08-01T00:54:25;11.52;;;8.13;;
61960;SDS011;47923;42.506;24.192;2022-08-01T00:56:52;9.27;;;8.02;;
61960;SDS011;47923;42.506;24.192;2022-08-01T00:59:18;12.63;;;8.95;;
61960;SDS011;47923;42.506;24.192;2022-08-01T01:01:46;10.38;;;8.63;;
61960;SDS011;47923;42.506;24.192;2022-08-01T01:04:12;9.40;;;8.35;;
61960;SDS011;47923;42.506;24.192;2022-08-01T01:07:02;13.30;;;8.55;;
61960;SDS011;47923;42.506;24.192;2022-08-01T01:17:48;8.55;;;7.28;;
61960;SDS011;47923;42.506;24.192;2022-08-01T01:20:20;9.80;;;8.30;;
61960;SDS011;47923;42.506;24.192;2022-08-01T01:30:46;10.60;;;8.98;;
61960;SDS011;47923;42.506;24.192;2022-08-01T01:33:16;12.90;;;8.95;;
61960;SDS011;47923;42.506;24.192;2022-08-01T01:35:46;9.82;;;8.45;;
61960;SDS011;47923;42.506;24.192;2022-08-01T01:38:18;10.05;;;8.93;;
61960;SDS011;47923;42.506;24.192;2022-08-01T01:40:47;10.30;;;9.20;;
61960;SDS011;47923;42.506;24.192;2022-08-01T01:43:15;10.05;;;8.88;;
61960;SDS011;47923;42.506;24.192;2022-08-01T01:45:42;11.65;;;8.68;;
61960;SDS011;47923;42.506;24.192;2022-08-01T01:48:12;10.68;;;9.43;;
61960;SDS011;47923;42.506;24.192;2022-08-01T01:50:40;12.05;;;8.38;;
61960;SDS011;47923;42.506;24.192;2022-08-01T01:53:07;10.50;;;9.40;;
61960;SDS011;47923;42.506;24.192;2022-08-01T01:55:37;11.32;;;8.73;;
61960;SDS011;47923;42.506;24.192;2022-08-01T01:58:04;9.73;;;8.73;;
61960;SDS011;47923;42.506;24.192;2022-08-01T02:00:32;10.70;;;8.45;;
61960;SDS011;47923;42.506;24.192;2022-08-01T02:02:59;10.98;;;8.65;;
61960;SDS011;47923;42.506;24.192;2022-08-01T02:05:27;9.65;;;8.48;;
61960;SDS011;47923;42.506;24.192;2022-08-01T02:07:53;9.25;;;7.35;;
61960;SDS011;47923;42.506;24.192;2022-08-01T02:10:20;11.38;;;7.95;;
61960;SDS011;47923;42.506;24.192;2022-08-01T02:12:47;9.95;;;7.07;;
61960;SDS011;47923;42.506;24.192;2022-08-01T02:15:15;9.95;;;7.10;;
61960;SDS011;47923;42.506;24.192;2022-08-01T02:17:43;9.38;;;7.32;;
61960;SDS011;47923;42.506;24.192;2022-08-01T02:20:13;8.95;;;6.82;;
61960;SDS011;47923;42.506;24.192;2022-08-01T02:22:49;9.00;;;7.13;;
61960;SDS011;47923;42.506;24.192;2022-08-01T02:28:01;8.73;;;6.07;;
61960;SDS011;47923;42.506;24.192;2022-08-01T02:30:31;8.65;;;5.70;;
61960;SDS011;47923;42.506;24.192;2022-08-01T02:33:05;7.45;;;5.70;;
61960;SDS011;47923;42.506;24.192;2022-08-01T02:35:36;7.72;;;5.57;;
61960;SDS011;47923;42.506;24.192;2022-08-01T02:38:04;7.68;;;5.70;;
61960;SDS011;47923;42.506;24.192;2022-08-01T02:40:31;7.85;;;5.82;;
61960;SDS011;47923;42.506;24.192;2022-08-01T02:42:59;7.28;;;4.93;;
61960;SDS011;47923;42.506;24.192;2022-08-01T02:45:27;7.78;;;5.25;;
61960;SDS011;47923;42.506;24.192;2022-08-01T02:47:57;11.43;;;10.27;;
61960;SDS011;47923;42.506;24.192;2022-08-01T02:50:30;9.77;;;5.70;;
61960;SDS011;47923;42.506;24.192;2022-08-01T02:52:58;7.65;;;5.63;;
61960;SDS011;47923;42.506;24.192;2022-08-01T02:55:25;9.32;;;5.93;;
61960;SDS011;47923;42.506;24.192;2022-08-01T02:57:51;9.45;;;5.65;;
61960;SDS011;47923;42.506;24.192;2022-08-01T03:00:20;8.32;;;5.72;;
61960;SDS011;47923;42.506;24.192;2022-08-01T03:02:48;8.13;;;5.25;;
61960;SDS011;47923;42.506;24.192;2022-08-01T03:05:16;7.55;;;5.18;;
61960;SDS011;47923;42.506;24.192;2022-08-01T03:07:42;9.18;;;5.55;;
61960;SDS011;47923;42.506;24.192;2022-08-01T03:10:08;7.57;;;5.70;;
61960;SDS011;47923;42.506;24.192;2022-08-01T03:12:35;8.15;;;5.95;;
61960;SDS011;47923;42.506;24.192;2022-08-01T03:15:06;7.63;;;5.80;;
61960;SDS011;47923;42.506;24.192;2022-08-01T03:17:34;7.68;;;5.88;;
61960;SDS011;47923;42.506;24.192;2022-08-01T03:20:02;8.30;;;5.80;;
61960;SDS011;47923;42.506;24.192;2022-08-01T03:22:29;8.60;;;5.60;;
61960;SDS011;47923;42.506;24.192;2022-08-01T03:24:58;7.75;;;5.38;;
61960;SDS011;47923;42.506;24.192;2022-08-01T03:27:25;7.57;;;5.65;;
61960;SDS011;47923;42.506;24.192;2022-08-01T03:29:51;7.80;;;5.32;;
61960;SDS011;47923;42.506;24.192;2022-08-01T03:32:21;7.70;;;5.28;;
61960;SDS011;47923;42.506;24.192;2022-08-01T03:34:48;7.78;;;5.55;;
61960;SDS011;47923;42.506;24.192;2022-08-01T03:40:02;7.22;;;4.55;;
61960;SDS011;47923;42.506;24.192;2022-08-01T03:42:34;7.22;;;5.00;;
61960;SDS011;47923;42.506;24.192;2022-08-01T03:45:09;6.90;;;4.35;;
61960;SDS011;47923;42.506;24.192;2022-08-01T03:47:39;7.55;;;4.72;;
61960;SDS011;47923;42.506;24.192;2022-08-01T03:50:08;6.20;;;4.30;;
61960;SDS011;47923;42.506;24.192;2022-08-01T03:52:37;7.40;;;4.82;;
61960;SDS011;47923;42.506;24.192;2022-08-01T03:55:05;6.03;;;4.13;;
61960;SDS011;47923;42.506;24.192;2022-08-01T03:57:32;11.18;;;6.85;;
61960;SDS011;47923;42.506;24.192;2022-08-01T03:59:59;6.68;;;4.57;;
61960;SDS011;47923;42.506;24.192;2022-08-01T04:02:26;8.38;;;4.78;;
61960;SDS011;47923;42.506;24.192;2022-08-01T04:04:52;6.45;;;3.92;;
61960;SDS011;47923;42.506;24.192;2022-08-01T04:07:36;7.65;;;3.22;;
61960;SDS011;47923;42.506;24.192;2022-08-01T04:10:04;6.72;;;3.83;;
61960;SDS011;47923;42.506;24.192;2022-08-01T04:12:31;5.65;;;2.60;;
61960;SDS011;47923;42.506;24.192;2022-08-01T04:14:58;29.75;;;6.20;;
61960;SDS011;47923;42.506;24.192;2022-08-01T04:17:24;6.95;;;2.47;;
61960;SDS011;47923;42.506;24.192;2022-08-01T04:19:49;6.57;;;2.42;;
61960;SDS011;47923;42.506;24.192;2022-08-01T04:22:15;8.50;;;2.67;;
61960;SDS011;47923;42.506;24.192;2022-08-01T04:24:41;18.38;;;3.83;;
61960;SDS011;47923;42.506;24.192;2022-08-01T04:27:11;6.50;;;2.10;;
61960;SDS011;47923;42.506;24.192;2022-08-01T04:29:39;5.80;;;1.77;;
61960;SDS011;47923;42.506;24.192;2022-08-01T04:32:07;7.75;;;2.58;;
61960;SDS011;47923;42.506;24.192;2022-08-01T04:34:36;7.85;;;2.28;;
61960;SDS011;47923;42.506;24.192;2022-08-01T04:37:05;4.43;;;1.80;;
61960;SDS011;47923;42.506;24.192;2022-08-01T04:39:34;5.18;;;1.63;;
61960;SDS011;47923;42.506;24.192;2022-08-01T04:42:02;8.70;;;1.60;;
61960;SDS011;47923;42.506;24.192;2022-08-01T04:44:30;3.13;;;1.70;;
61960;SDS011;47923;42.506;24.192;2022-08-01T04:46:58;3.33;;;1.70;;
61960;SDS011;47923;42.506;24.192;2022-08-01T04:49:25;5.00;;;1.50;;
61960;SDS011;47923;42.506;24.192;2022-08-01T04:51:54;3.83;;;1.75;;
61960;SDS011;47923;42.506;24.192;2022-08-01T04:54:25;7.00;;;1.80;;
61960;SDS011;47923;42.506;24.192;2022-08-01T04:56:52;2.42;;;1.67;;
61960;SDS011;47923;42.506;24.192;2022-08-01T04:59:24;6.57;;;1.90;;
61960;SDS011;47923;42.506;24.192;2022-08-01T05:02:08;2.63;;;1.33;;
61960;SDS011;47923;42.506;24.192;2022-08-01T05:04:35;3.97;;;1.98;;
61960;SDS011;47923;42.506;24.192;2022-08-01T05:07:02;2.67;;;1.75;;
61960;SDS011;47923;42.506;24.192;2022-08-01T05:09:28;5.40;;;1.95;;
61960;SDS011;47923;42.506;24.192;2022-08-01T05:11:53;2.58;;;1.88;;
61960;SDS011;47923;42.506;24.192;2022-08-01T05:14:19;4.80;;;1.70;;
61960;SDS011;47923;42.506;24.192;2022-08-01T05:16:44;5.55;;;1.83;;
61960;SDS011;47923;42.506;24.192;2022-08-01T05:19:11;5.32;;;1.98;;
61960;SDS011;47923;42.506;24.192;2022-08-01T05:21:37;4.82;;;2.05;;
61960;SDS011;47923;42.506;24.192;2022-08-01T05:24:03;4.45;;;1.90;;
61960;SDS011;47923;42.506;24.192;2022-08-01T05:26:29;4.47;;;1.80;;
61960;SDS011;47923;42.506;24.192;2022-08-01T05:28:55;4.40;;;1.90;;
61960;SDS011;47923;42.506;24.192;2022-08-01T05:31:20;5.35;;;1.70;;
61960;SDS011;47923;42.506;24.192;2022-08-01T05:33:45;4.43;;;1.75;;
61960;SDS011;47923;42.506;24.192;2022-08-01T05:36:11;5.85;;;1.55;;
61960;SDS011;47923;42.506;24.192;2022-08-01T05:38:36;2.92;;;1.98;;
61960;SDS011;47923;42.506;24.192;2022-08-01T05:41:02;6.05;;;2.30;;
61960;SDS011;47923;42.506;24.192;2022-08-01T05:43:27;5.85;;;1.73;;
61960;SDS011;47923;42.506;24.192;2022-08-01T05:45:53;2.35;;;1.50;;
61960;SDS011;47923;42.506;24.192;2022-08-01T05:48:18;2.95;;;1.50;;
61960;SDS011;47923;42.506;24.192;2022-08-01T05:50:44;5.57;;;1.58;;
61960;SDS011;47923;42.506;24.192;2022-08-01T05:53:09;5.78;;;1.58;;
61960;SDS011;47923;42.506;24.192;2022-08-01T05:55:35;5.75;;;1.40;;
61960;SDS011;47923;42.506;24.192;2022-08-01T05:58:01;2.58;;;1.60;;
61960;SDS011;47923;42.506;24.192;2022-08-01T06:00:27;3.35;;;1.40;;
61960;SDS011;47923;42.506;24.192;2022-08-01T06:02:53;6.82;;;1.60;;
61960;SDS011;47923;42.506;24.192;2022-08-01T06:05:18;5.07;;;1.70;;
61960;SDS011;47923;42.506;24.192;2022-08-01T06:07:44;4.63;;;1.70;;
61960;SDS011;47923;42.506;24.192;2022-08-01T06:10:09;4.85;;;1.67;;
61960;SDS011;47923;42.506;24.192;2022-08-01T06:12:35;3.58;;;1.50;;
61960;SDS011;47923;42.506;24.192;2022-08-01T06:15:02;4.40;;;1.48;;
61960;SDS011;47923;42.506;24.192;2022-08-01T06:17:28;4.72;;;1.77;;
61960;SDS011;47923;42.506;24.192;2022-08-01T06:19:53;3.67;;;1.77;;
61960;SDS011;47923;42.506;24.192;2022-08-01T06:22:19;4.20;;;1.67;;
61960;SDS011;47923;42.506;24.192;2022-08-01T06:24:44;5.20;;;1.80;;
61960;SDS011;47923;42.506;24.192;2022-08-01T06:27:10;4.03;;;1.80;;
61960;SDS011;47923;42.506;24.192;2022-08-01T06:29:35;2.47;;;1.40;;
61960;SDS011;47923;42.506;24.192;2022-08-01T06:32:01;4.30;;;1.60;;
61960;SDS011;47923;42.506;24.192;2022-08-01T06:34:26;3.35;;;1.63;;
61960;SDS011;47923;42.506;24.192;2022-08-01T06:36:52;3.60;;;1.50;;
61960;SDS011;47923;42.506;24.192;2022-08-01T06:39:17;2.65;;;1.45;;
61960;SDS011;47923;42.506;24.192;2022-08-01T06:41:43;4.63;;;1.67;;
61960;SDS011;47923;42.506;24.192;2022-08-01T06:44:11;3.03;;;1.58;;
61960;SDS011;47923;42.506;24.192;2022-08-01T06:46:37;5.20;;;1.52;;
61960;SDS011;47923;42.506;24.192;2022-08-01T06:49:02;3.65;;;1.30;;
61960;SDS011;47923;42.506;24.192;2022-08-01T06:51:28;6.70;;;1.52;;
61960;SDS011;47923;42.506;24.192;2022-08-01T06:53:53;5.70;;;1.48;;
61960;SDS011;47923;42.506;24.192;2022-08-01T06:56:19;5.03;;;1.50;;
61960;SDS011;47923;42.506;24.192;2022-08-01T06:58:44;4.78;;;1.83;;
61960;SDS011;47923;42.506;24.192;2022-08-01T07:01:09;2.42;;;1.25;;
61960;SDS011;47923;42.506;24.192;2022-08-01T07:03:35;3.75;;;1.60;;
61960;SDS011;47923;42.506;24.192;2022-08-01T07:06:01;2.45;;;1.30;;
61960;SDS011;47923;42.506;24.192;2022-08-01T07:08:26;3.53;;;1.63;;
61960;SDS011;47923;42.506;24.192;2022-08-01T07:10:52;3.58;;;1.42;;
61960;SDS011;47923;42.506;24.192;2022-08-01T07:13:17;6.63;;;1.50;;
61960;SDS011;47923;42.506;24.192;2022-08-01T07:15:46;6.45;;;1.73;;
61960;SDS011;47923;42.506;24.192;2022-08-01T07:18:12;3.58;;;1.40;;
61960;SDS011;47923;42.506;24.192;2022-08-01T07:20:38;6.82;;;1.75;;
61960;SDS011;47923;42.506;24.192;2022-08-01T07:23:03;5.95;;;1.88;;
61960;SDS011;47923;42.506;24.192;2022-08-01T07:25:29;3.90;;;1.52;;
61960;SDS011;47923;42.506;24.192;2022-08-01T07:27:54;2.88;;;1.65;;
61960;SDS011;47923;42.506;24.192;2022-08-01T07:30:20;4.22;;;1.55;;
61960;SDS011;47923;42.506;24.192;2022-08-01T07:32:46;3.45;;;1.40;;
61960;SDS011;47923;42.506;24.192;2022-08-01T07:35:11;7.50;;;1.75;;
61960;SDS011;47923;42.506;24.192;2022-08-01T07:37:37;2.35;;;1.20;;
61960;SDS011;47923;42.506;24.192;2022-08-01T07:40:03;5.78;;;1.50;;
61960;SDS011;47923;42.506;24.192;2022-08-01T07:42:30;3.72;;;1.52;;
61960;SDS011;47923;42.506;24.192;2022-08-01T07:44:55;5.93;;;1.70;;
61960;SDS011;47923;42.506;24.192;2022-08-01T07:47:24;3.58;;;1.60;;
61960;SDS011;47923;42.506;24.192;2022-08-01T07:49:50;4.38;;;1.40;;
61960;SDS011;47923;42.506;24.192;2022-08-01T07:52:16;4.95;;;1.65;;
61960;SDS011;47923;42.506;24.192;2022-08-01T07:54:42;5.18;;;1.42;;
61960;SDS011;47923;42.506;24.192;2022-08-01T07:57:07;4.43;;;1.45;;
61960;SDS011;47923;42.506;24.192;2022-08-01T07:59:33;5.20;;;1.20;;
61960;SDS011;47923;42.506;24.192;2022-08-01T08:01:59;3.65;;;1.20;;
61960;SDS011;47923;42.506;24.192;2022-08-01T08:04:25;4.35;;;1.30;;
61960;SDS011;47923;42.506;24.192;2022-08-01T08:06:51;5.10;;;1.60;;
61960;SDS011;47923;42.506;24.192;2022-08-01T08:09:18;5.22;;;1.40;;
61960;SDS011;47923;42.506;24.192;2022-08-01T08:11:44;3.22;;;1.20;;
61960;SDS011;47923;42.506;24.192;2022-08-01T08:14:09;4.38;;;1.40;;
61960;SDS011;47923;42.506;24.192;2022-08-01T08:16:35;7.20;;;2.10;;
61960;SDS011;47923;42.506;24.192;2022-08-01T08:19:01;4.30;;;1.50;;
61960;SDS011;47923;42.506;24.192;2022-08-01T08:21:26;5.35;;;2.33;;
61960;SDS011;47923;42.506;24.192;2022-08-01T08:23:52;5.50;;;1.92;;
61960;SDS011;47923;42.506;24.192;2022-08-01T08:26:36;2.80;;;1.13;;
61960;SDS011;47923;42.506;24.192;2022-08-01T08:29:02;5.50;;;1.40;;
61960;SDS011;47923;42.506;24.192;2022-08-01T08:31:28;2.78;;;1.30;;
61960;SDS011;47923;42.506;24.192;2022-08-01T08:33:53;4.82;;;1.10;;
61960;SDS011;47923;42.506;24.192;2022-08-01T08:36:25;6.38;;;1.38;;
61960;SDS011;47923;42.506;24.192;2022-08-01T08:38:54;2.80;;;1.30;;
61960;SDS011;47923;42.506;24.192;2022-08-01T08:41:20;3.15;;;1.23;;
61960;SDS011;47923;42.506;24.192;2022-08-01T08:44:06;3.88;;;1.38;;
61960;SDS011;47923;42.506;24.192;2022-08-01T08:46:33;3.65;;;1.27;;
61960;SDS011;47923;42.506;24.192;2022-08-01T08:49:04;3.20;;;1.13;;
61960;SDS011;47923;42.506;24.192;2022-08-01T08:51:31;3.92;;;1.25;;
61960;SDS011;47923;42.506;24.192;2022-08-01T08:53:59;4.07;;;1.40;;
61960;SDS011;47923;42.506;24.192;2022-08-01T08:56:27;3.47;;;1.10;;
61960;SDS011;47923;42.506;24.192;2022-08-01T08:58:58;3.40;;;1.40;;
61960;SDS011;47923;42.506;24.192;2022-08-01T09:01:25;4.10;;;0.90;;
61960;SDS011;47923;42.506;24.192;2022-08-01T09:03:50;2.58;;;0.80;;
61960;SDS011;47923;42.506;24.192;2022-08-01T09:06:16;4.05;;;1.10;;
61960;SDS011;47923;42.506;24.192;2022-08-01T09:08:42;2.72;;;1.00;;
61960;SDS011;47923;42.506;24.192;2022-08-01T09:11:07;3.05;;;1.15;;
61960;SDS011;47923;42.506;24.192;2022-08-01T09:13:33;7.05;;;1.55;;
61960;SDS011;47923;42.506;24.192;2022-08-01T09:15:58;13.15;;;1.67;;
61960;SDS011;47923;42.506;24.192;2022-08-01T09:21:12;1.50;;;1.02;;
61960;SDS011;47923;42.506;24.192;2022-08-01T09:26:20;3.90;;;1.20;;
61960;SDS011;47923;42.506;24.192;2022-08-01T09:28:52;3.50;;;1.20;;
61960;SDS011;47923;42.506;24.192;2022-08-01T09:31:18;2.13;;;1.13;;
61960;SDS011;47923;42.506;24.192;2022-08-01T09:33:51;4.18;;;1.30;;
61960;SDS011;47923;42.506;24.192;2022-08-01T09:36:23;2.85;;;0.98;;
61960;SDS011;47923;42.506;24.192;2022-08-01T09:38:50;2.95;;;1.17;;
61960;SDS011;47923;42.506;24.192;2022-08-01T09:41:17;3.33;;;1.23;;
61960;SDS011;47923;42.506;24.192;2022-08-01T09:43:55;2.65;;;0.90;;
61960;SDS011;47923;42.506;24.192;2022-08-01T09:46:20;1.95;;;0.90;;
61960;SDS011;47923;42.506;24.192;2022-08-01T09:49:29;3.72;;;0.95;;
61960;SDS011;47923;42.506;24.192;2022-08-01T09:51:56;1.25;;;0.80;;
61960;SDS011;47923;42.506;24.192;2022-08-01T09:54:30;3.85;;;1.25;;
61960;SDS011;47923;42.506;24.192;2022-08-01T09:59:54;4.72;;;0.98;;
61960;SDS011;47923;42.506;24.192;2022-08-01T10:05:05;2.75;;;1.02;;
61960;SDS011;47923;42.506;24.192;2022-08-01T10:07:32;3.45;;;0.90;;
61960;SDS011;47923;42.506;24.192;2022-08-01T10:12:37;3.17;;;1.08;;
61960;SDS011;47923;42.506;24.192;2022-08-01T10:15:05;1.35;;;0.75;;
61960;SDS011;47923;42.506;24.192;2022-08-01T10:17:31;2.38;;;0.90;;
61960;SDS011;47923;42.506;24.192;2022-08-01T10:19:59;3.17;;;0.90;;
61960;SDS011;47923;42.506;24.192;2022-08-01T10:22:27;2.03;;;0.82;;
61960;SDS011;47923;42.506;24.192;2022-08-01T10:24:55;2.35;;;1.00;;
61960;SDS011;47923;42.506;24.192;2022-08-01T10:27:23;2.67;;;0.70;;
61960;SDS011;47923;42.506;24.192;2022-08-01T10:29:57;2.17;;;1.00;;
61960;SDS011;47923;42.506;24.192;2022-08-01T10:32:33;1.75;;;1.02;;
61960;SDS011;47923;42.506;24.192;2022-08-01T10:35:05;1.75;;;1.05;;
61960;SDS011;47923;42.506;24.192;2022-08-01T10:37:33;2.28;;;1.00;;
61960;SDS011;47923;42.506;24.192;2022-08-01T10:39:59;2.10;;;0.95;;
61960;SDS011;47923;42.506;24.192;2022-08-01T10:42:25;3.33;;;1.00;;
61960;SDS011;47923;42.506;24.192;2022-08-01T10:44:52;2.10;;;1.17;;
61960;SDS011;47923;42.506;24.192;2022-08-01T10:47:33;2.03;;;1.00;;
61960;SDS011;47923;42.506;24.192;2022-08-01T10:50:15;13.25;;;1.70;;
61960;SDS011;47923;42.506;24.192;2022-08-01T11:06:35;3.17;;;1.40;;
61960;SDS011;47923;42.506;24.192;2022-08-01T11:12:02;4.80;;;1.85;;
61960;SDS011;47923;42.506;24.192;2022-08-01T11:17:41;4.03;;;1.30;;
61960;SDS011;47923;42.506;24.192;2022-08-01T11:25:24;2.92;;;1.42;;
61960;SDS011;47923;42.506;24.192;2022-08-01T11:30:52;3.60;;;1.48;;
61960;SDS011;47923;42.506;24.192;2022-08-01T11:34:05;3.17;;;1.80;;
61960;SDS011;47923;42.506;24.192;2022-08-01T11:49:33;3.63;;;1.60;;
61960;SDS011;47923;42.506;24.192;2022-08-01T11:54:28;2.70;;;1.48;;
61960;SDS011;47923;42.506;24.192;2022-08-01T11:57:19;2.15;;;1.50;;
61960;SDS011;47923;42.506;24.192;2022-08-01T11:59:51;3.70;;;1.70;;
61960;SDS011;47923;42.506;24.192;2022-08-01T12:07:26;4.10;;;1.70;;
61960;SDS011;47923;42.506;24.192;2022-08-01T12:10:27;4.93;;;2.13;;
61960;SDS011;47923;42.506;24.192;2022-08-01T12:12:50;4.40;;;1.90;;
61960;SDS011;47923;42.506;24.192;2022-08-01T12:15:18;3.53;;;1.52;;
61960;SDS011;47923;42.506;24.192;2022-08-01T12:17:55;4.53;;;2.13;;
61960;SDS011;47923;42.506;24.192;2022-08-01T12:20:22;6.35;;;2.00;;
61960;SDS011;47923;42.506;24.192;2022-08-01T12:22:55;5.07;;;1.73;;
61960;SDS011;47923;42.506;24.192;2022-08-01T12:25:21;4.88;;;1.90;;
61960;SDS011;47923;42.506;24.192;2022-08-01T12:27:48;5.78;;;2.05;;
61960;SDS011;47923;42.506;24.192;2022-08-01T12:30:18;4.13;;;1.70;;
61960;SDS011;47923;42.506;24.192;2022-08-01T12:32:50;6.88;;;1.90;;
61960;SDS011;47923;42.506;24.192;2022-08-01T12:35:23;3.78;;;1.70;;
61960;SDS011;47923;42.506;24.192;2022-08-01T12:37:51;2.70;;;1.50;;
61960;SDS011;47923;42.506;24.192;2022-08-01T12:42:56;2.80;;;1.75;;
61960;SDS011;47923;42.506;24.192;2022-08-01T12:45:25;3.67;;;1.75;;
61960;SDS011;47923;42.506;24.192;2022-08-01T12:47:53;4.82;;;1.88;;
61960;SDS011;47923;42.506;24.192;2022-08-01T12:50:22;2.95;;;1.70;;
61960;SDS011;47923;42.506;24.192;2022-08-01T12:52:51;2.95;;;1.65;;
61960;SDS011;47923;42.506;24.192;2022-08-01T12:55:18;4.78;;;2.05;;
61960;SDS011;47923;42.506;24.192;2022-08-01T12:57:46;3.10;;;1.67;;
61960;SDS011;47923;42.506;24.192;2022-08-01T13:00:24;3.28;;;1.75;;
61960;SDS011;47923;42.506;24.192;2022-08-01T13:03:01;4.22;;;1.83;;
61960;SDS011;47923;42.506;24.192;2022-08-01T13:10:41;4.45;;;1.65;;
61960;SDS011;47923;42.506;24.192;2022-08-01T13:13:08;6.03;;;1.80;;
61960;SDS011;47923;42.506;24.192;2022-08-01T13:15:35;3.45;;;1.80;;
61960;SDS011;47923;42.506;24.192;2022-08-01T13:23:41;3.63;;;1.73;;
61960;SDS011;47923;42.506;24.192;2022-08-01T13:29:16;4.35;;;1.90;;
61960;SDS011;47923;42.506;24.192;2022-08-01T13:31:44;6.40;;;1.95;;
61960;SDS011;47923;42.506;24.192;2022-08-01T13:34:10;6.10;;;1.95;;
61960;SDS011;47923;42.506;24.192;2022-08-01T13:36:35;4.70;;;1.90;;
61960;SDS011;47923;42.506;24.192;2022-08-01T13:39:02;6.15;;;1.90;;
61960;SDS011;47923;42.506;24.192;2022-08-01T13:41:46;3.53;;;1.60;;
61960;SDS011;47923;42.506;24.192;2022-08-01T13:44:12;2.80;;;1.65;;
61960;SDS011;47923;42.506;24.192;2022-08-01T13:46:38;2.80;;;1.70;;
61960;SDS011;47923;42.506;24.192;2022-08-01T13:49:05;3.63;;;1.83;;
61960;SDS011;47923;42.506;24.192;2022-08-01T13:51:31;4.03;;;1.67;;
61960;SDS011;47923;42.506;24.192;2022-08-01T13:53:57;6.03;;;2.10;;
61960;SDS011;47923;42.506;24.192;2022-08-01T13:56:23;4.95;;;2.03;;
61960;SDS011;47923;42.506;24.192;2022-08-01T13:58:49;2.60;;;1.60;;
61960;SDS011;47923;42.506;24.192;2022-08-01T14:01:15;2.47;;;1.55;;
61960;SDS011;47923;42.506;24.192;2022-08-01T14:03:40;5.47;;;1.65;;
61960;SDS011;47923;42.506;24.192;2022-08-01T14:06:06;2.92;;;1.70;;
61960;SDS011;47923;42.506;24.192;2022-08-01T14:08:32;4.05;;;1.60;;
61960;SDS011;47923;42.506;24.192;2022-08-01T14:10:58;4.88;;;1.98;;
61960;SDS011;47923;42.506;24.192;2022-08-01T14:13:24;2.92;;;1.70;;
61960;SDS011;47923;42.506;24.192;2022-08-01T14:15:51;3.78;;;1.30;;
61960;SDS011;47923;42.506;24.192;2022-08-01T14:18:17;2.22;;;1.30;;
61960;SDS011;47923;42.506;24.192;2022-08-01T14:20:43;2.25;;;1.40;;
61960;SDS011;47923;42.506;24.192;2022-08-01T14:23:09;3.45;;;1.70;;
61960;SDS011;47923;42.506;24.192;2022-08-01T14:25:36;4.43;;;2.10;;
61960;SDS011;47923;42.506;24.192;2022-08-01T14:28:02;4.68;;;2.10;;
61960;SDS011;47923;42.506;24.192;2022-08-01T14:30:28;3.88;;;1.40;;
61960;SDS011;47923;42.506;24.192;2022-08-01T14:32:54;2.53;;;1.30;;
61960;SDS011;47923;42.506;24.192;2022-08-01T14:35:19;3.70;;;1.30;;
61960;SDS011;47923;42.506;24.192;2022-08-01T14:37:44;1.95;;;1.30;;
61960;SDS011;47923;42.506;24.192;2022-08-01T14:40:10;6.07;;;1.45;;
61960;SDS011;47923;42.506;24.192;2022-08-01T14:42:39;1.50;;;1.20;;
61960;SDS011;47923;42.506;24.192;2022-08-01T14:45:05;2.58;;;1.30;;
61960;SDS011;47923;42.506;24.192;2022-08-01T14:47:40;2.80;;;1.10;;
61960;SDS011;47923;42.506;24.192;2022-08-01T14:50:08;3.33;;;1.35;;
61960;SDS011;47923;42.506;24.192;2022-08-01T14:52:36;4.47;;;1.50;;
61960;SDS011;47923;42.506;24.192;2022-08-01T14:55:02;2.38;;;1.30;;
61960;SDS011;47923;42.506;24.192;2022-08-01T14:57:29;2.83;;;1.30;;
61960;SDS011;47923;42.506;24.192;2022-08-01T14:59:55;1.55;;;1.35;;
61960;SDS011;47923;42.506;24.192;2022-08-01T15:02:20;3.80;;;1.35;;
61960;SDS011;47923;42.506;24.192;2022-08-01T15:04:46;1.98;;;1.30;;
61960;SDS011;47923;42.506;24.192;2022-08-01T15:07:13;4.13;;;1.58;;
61960;SDS011;47923;42.506;24.192;2022-08-01T15:09:39;1.88;;;1.20;;
61960;SDS011;47923;42.506;24.192;2022-08-01T15:12:05;4.32;;;1.52;;
61960;SDS011;47923;42.506;24.192;2022-08-01T15:14:31;8.00;;;1.48;;
61960;SDS011;47923;42.506;24.192;2022-08-01T15:17:21;3.80;;;1.90;;
61960;SDS011;47923;42.506;24.192;2022-08-01T15:19:49;2.97;;;1.45;;
61960;SDS011;47923;42.506;24.192;2022-08-01T15:22:18;5.13;;;1.30;;
61960;SDS011;47923;42.506;24.192;2022-08-01T15:24:44;2.05;;;1.23;;
61960;SDS011;47923;42.506;24.192;2022-08-01T15:27:09;3.20;;;1.48;;
61960;SDS011;47923;42.506;24.192;2022-08-01T15:29:35;3.42;;;1.60;;
61960;SDS011;47923;42.506;24.192;2022-08-01T15:32:02;4.75;;;1.73;;
61960;SDS011;47923;42.506;24.192;2022-08-01T15:34:29;2.28;;;1.27;;
61960;SDS011;47923;42.506;24.192;2022-08-01T15:36:55;4.20;;;1.55;;
61960;SDS011;47923;42.506;24.192;2022-08-01T15:39:22;4.78;;;1.55;;
61960;SDS011;47923;42.506;24.192;2022-08-01T15:41:47;4.28;;;1.40;;
61960;SDS011;47923;42.506;24.192;2022-08-01T15:44:13;2.40;;;1.48;;
61960;SDS011;47923;42.506;24.192;2022-08-01T15:46:39;3.33;;;1.83;;
61960;SDS011;47923;42.506;24.192;2022-08-01T15:49:05;2.95;;;1.38;;
61960;SDS011;47923;42.506;24.192;2022-08-01T15:51:31;7.07;;;2.63;;
61960;SDS011;47923;42.506;24.192;2022-08-01T15:53:57;5.55;;;2.15;;
61960;SDS011;47923;42.506;24.192;2022-08-01T15:56:23;3.25;;;1.50;;
61960;SDS011;47923;42.506;24.192;2022-08-01T15:58:49;4.35;;;1.42;;
61960;SDS011;47923;42.506;24.192;2022-08-01T16:01:15;4.13;;;1.35;;
61960;SDS011;47923;42.506;24.192;2022-08-01T16:03:41;2.88;;;1.77;;
61960;SDS011;47923;42.506;24.192;2022-08-01T16:06:06;4.65;;;1.70;;
61960;SDS011;47923;42.506;24.192;2022-08-01T16:08:32;2.47;;;1.50;;
61960;SDS011;47923;42.506;24.192;2022-08-01T16:10:58;4.32;;;1.75;;
61960;SDS011;47923;42.506;24.192;2022-08-01T16:13:23;4.70;;;1.40;;
61960;SDS011;47923;42.506;24.192;2022-08-01T16:15:49;3.40;;;1.40;;
61960;SDS011;47923;42.506;24.192;2022-08-01T16:18:14;2.88;;;1.48;;